Time;durP1;ratioP1;P1;durP2;ratioP2;P2;SDS_P1;SDS_P2;PMS_P1;PMS_P2;Temp;Humidity;BMP_temperature;BMP_pressure;BME280_temperature;BME280_humidity;BME280_pressure;Samples;Min_cycle;Max_cycle;Signal;HPM_P1;HPM_P2
2021/11/07 00:00:57;;;;;;;0.60;0.32;;;18.40;48.30;;;;;;5078015;28;20437;-41
2021/11/07 00:03:28;;;;;;;1.13;0.40;;;18.40;48.20;;;;;;5079608;28;20048;-41
2021/11/07 00:06:01;;;;;;;1.95;0.40;;;18.40;48.20;;;;;;5079887;28;20063;-40
2021/11/07 00:08:45;;;;;;;0.50;0.50;;;18.40;48.20;;;;;;5078559;28;20062;-40
2021/11/07 00:11:27;;;;;;;0.47;0.30;;;18.40;48.20;;;;;;5081956;28;20524;-40
2021/11/07 00:13:55;;;;;;;0.50;0.40;;;18.40;48.20;;;;;;5075228;28;20089;-40
2021/11/07 00:16:27;;;;;;;2.08;0.70;;;18.40;48.20;;;;;;5073730;28;20499;-41
2021/11/07 00:19:10;;;;;;;1.15;0.30;;;18.40;48.20;;;;;;5076191;28;20071;-40
2021/11/07 00:21:44;;;;;;;0.52;0.52;;;18.40;48.20;;;;;;5078464;28;20044;-40
2021/11/07 00:24:14;;;;;;;1.30;0.60;;;18.40;48.20;;;;;;5080307;28;20108;-41
2021/11/07 00:26:55;;;;;;;1.10;0.52;;;18.40;48.20;;;;;;5079224;28;20058;-40
2021/11/07 00:29:25;;;;;;;2.38;0.70;;;18.40;48.20;;;;;;5083285;28;20044;-40
2021/11/07 00:32:00;;;;;;;1.38;0.50;;;18.40;48.20;;;;;;5074177;28;20097;-40
2021/11/07 00:37:10;;;;;;;2.03;0.50;;;18.40;48.20;;;;;;5073916;28;20036;-41
2021/11/07 00:39:43;;;;;;;0.63;0.40;;;18.40;48.20;;;;;;5078462;28;20519;-41
2021/11/07 00:42:17;;;;;;;0.73;0.40;;;18.40;48.20;;;;;;5078576;28;20637;-40
2021/11/07 00:44:53;;;;;;;1.20;1.08;;;18.40;48.20;;;;;;5082025;28;20458;-41
2021/11/07 00:50:09;;;;;;;0.40;0.30;;;18.30;48.10;;;;;;5075708;28;19934;-41
2021/11/07 00:52:39;;;;;;;1.15;0.63;;;18.30;48.30;;;;;;5077123;28;20139;-41
2021/11/07 00:55:11;;;;;;;0.90;0.68;;;18.40;48.30;;;;;;5075220;28;20044;-41
2021/11/07 00:57:49;;;;;;;0.30;0.30;;;18.30;48.20;;;;;;5076884;28;20091;-41
2021/11/07 01:00:24;;;;;;;0.90;0.45;;;18.40;48.30;;;;;;5075985;28;20051;-41
2021/11/07 01:02:54;;;;;;;1.08;0.30;;;18.30;48.20;;;;;;5080453;28;20055;-41
2021/11/07 01:05:26;;;;;;;1.95;0.45;;;18.40;48.30;;;;;;5082194;28;20595;-40
2021/11/07 01:07:53;;;;;;;0.95;0.52;;;18.40;48.20;;;;;;5075908;28;20530;-41
2021/11/07 01:10:21;;;;;;;0.88;0.40;;;18.30;48.10;;;;;;5075064;28;20058;-41
2021/11/07 01:12:50;;;;;;;0.50;0.43;;;18.40;48.20;;;;;;5076119;28;20040;-41
2021/11/07 01:15:18;;;;;;;0.60;0.43;;;18.40;48.20;;;;;;5079773;28;20500;-40
2021/11/07 01:17:45;;;;;;;0.45;0.30;;;18.40;48.20;;;;;;5077181;28;20135;-41
2021/11/07 01:20:14;;;;;;;0.85;0.30;;;18.40;48.20;;;;;;5078591;28;20040;-41
2021/11/07 01:22:51;;;;;;;0.30;0.30;;;18.40;48.10;;;;;;5071949;28;20412;-40
2021/11/07 01:25:18;;;;;;;2.38;0.60;;;18.40;48.10;;;;;;5073090;28;20036;-41
2021/11/07 01:27:46;;;;;;;1.35;0.40;;;18.40;48.10;;;;;;5077264;28;20036;-41
2021/11/07 01:30:20;;;;;;;1.23;0.25;;;18.40;48.10;;;;;;5073499;28;20116;-41
2021/11/07 01:32:51;;;;;;;1.70;0.40;;;18.40;48.20;;;;;;5077776;28;20075;-41
2021/11/07 01:35:23;;;;;;;1.35;0.40;;;18.40;48.10;;;;;;5079732;28;20510;-41
2021/11/07 01:37:58;;;;;;;2.72;0.57;;;18.40;48.10;;;;;;5070670;28;20105;-41
2021/11/07 01:40:27;;;;;;;0.52;0.52;;;18.40;48.20;;;;;;5074833;28;20075;-41
2021/11/07 01:42:56;;;;;;;0.50;0.40;;;18.40;48.10;;;;;;5076013;28;20043;-41
2021/11/07 01:45:27;;;;;;;0.47;0.30;;;18.40;48.20;;;;;;5076649;28;20094;-40
2021/11/07 01:48:01;;;;;;;1.05;0.35;;;18.40;48.20;;;;;;5078955;28;20071;-41
2021/11/07 01:50:30;;;;;;;0.60;0.60;;;18.40;48.20;;;;;;5077734;28;20048;-42
2021/11/07 01:53:05;;;;;;;0.93;0.30;;;18.40;48.20;;;;;;5074734;28;20040;-41
2021/11/07 01:55:32;;;;;;;0.52;0.40;;;18.40;48.20;;;;;;5073387;28;20040;-41
2021/11/07 01:57:59;;;;;;;0.43;0.20;;;18.40;48.20;;;;;;5076297;28;20040;-41
2021/11/07 02:00:30;;;;;;;0.43;0.30;;;18.40;48.20;;;;;;5073087;28;20064;-41
2021/11/07 02:02:58;;;;;;;0.22;0.20;;;18.40;48.20;;;;;;5078461;28;20086;-41
2021/11/07 02:05:26;;;;;;;1.10;0.80;;;18.40;48.10;;;;;;5080449;28;20138;-41
2021/11/07 02:07:54;;;;;;;0.25;0.22;;;18.40;48.20;;;;;;5072451;28;20039;-40
2021/11/07 02:10:21;;;;;;;1.95;0.55;;;18.40;48.20;;;;;;5070193;28;20123;-41
2021/11/07 02:12:48;;;;;;;1.40;1.23;;;18.40;48.20;;;;;;5072700;28;20044;-41
2021/11/07 02:15:18;;;;;;;0.20;0.10;;;18.40;48.20;;;;;;5076986;28;20422;-40
2021/11/07 02:17:47;;;;;;;0.70;0.30;;;18.40;48.20;;;;;;5078968;28;20044;-41
2021/11/07 02:20:22;;;;;;;0.73;0.30;;;18.40;48.20;;;;;;5079514;28;20531;-41
2021/11/07 02:22:50;;;;;;;0.40;0.20;;;18.40;48.20;;;;;;5069569;28;20040;-41
2021/11/07 02:25:17;;;;;;;0.32;0.30;;;18.40;48.20;;;;;;5075926;28;20038;-40
2021/11/07 02:27:46;;;;;;;2.15;0.40;;;18.40;48.20;;;;;;5075441;28;20048;-41
2021/11/07 02:30:15;;;;;;;0.20;0.10;;;18.40;48.30;;;;;;5075938;28;20481;-41
2021/11/07 02:32:42;;;;;;;0.57;0.40;;;18.40;48.20;;;;;;5077132;28;20044;-41
2021/11/07 02:35:10;;;;;;;1.25;0.20;;;18.40;48.20;;;;;;5079196;28;20062;-41
2021/11/07 02:37:39;;;;;;;1.27;0.30;;;18.40;48.20;;;;;;5071784;28;20150;-41
2021/11/07 02:40:08;;;;;;;0.25;0.20;;;18.40;48.30;;;;;;5070829;28;20520;-41
2021/11/07 02:42:36;;;;;;;3.40;0.20;;;18.40;48.30;;;;;;5073439;28;20043;-41
2021/11/07 02:45:05;;;;;;;1.95;0.28;;;18.40;48.30;;;;;;5074956;28;20033;-45
2021/11/07 02:47:32;;;;;;;0.45;0.30;;;18.40;48.30;;;;;;5080520;28;20051;-41
2021/11/07 02:49:59;;;;;;;1.98;0.52;;;18.40;48.30;;;;;;5073879;28;20044;-41
2021/11/07 02:52:26;;;;;;;0.93;0.20;;;18.40;48.30;;;;;;5072991;28;20050;-41
2021/11/07 02:54:54;;;;;;;0.50;0.15;;;18.40;48.30;;;;;;5074126;28;20115;-41
2021/11/07 02:57:22;;;;;;;0.95;0.20;;;18.40;48.40;;;;;;5073539;28;20483;-41
2021/11/07 02:59:55;;;;;;;0.30;0.20;;;18.40;48.40;;;;;;5074589;28;20046;-41
2021/11/07 03:02:24;;;;;;;0.47;0.47;;;18.40;48.40;;;;;;5079928;28;20059;-41
2021/11/07 03:04:51;;;;;;;0.40;0.30;;;18.40;48.50;;;;;;5071480;28;20123;-41
2021/11/07 03:07:18;;;;;;;0.73;0.50;;;18.40;48.50;;;;;;5075939;28;20044;-41
2021/11/07 03:09:45;;;;;;;0.65;0.38;;;18.40;48.50;;;;;;5074840;28;20036;-41
2021/11/07 03:12:14;;;;;;;1.23;0.22;;;18.50;48.50;;;;;;5075847;28;20033;-41
2021/11/07 03:14:45;;;;;;;0.65;0.20;;;18.40;48.50;;;;;;5078106;28;20127;-40
2021/11/07 03:17:13;;;;;;;0.47;0.32;;;18.50;48.60;;;;;;5080241;28;20051;-41
2021/11/07 03:19:41;;;;;;;0.90;0.20;;;18.40;48.60;;;;;;5071471;28;20147;-40
2021/11/07 03:22:11;;;;;;;0.30;0.30;;;18.40;48.60;;;;;;5065833;28;20049;-41
2021/11/07 03:24:40;;;;;;;2.83;1.35;;;18.50;48.60;;;;;;5068475;28;20151;-41
2021/11/07 03:27:13;;;;;;;2.35;0.30;;;18.50;48.70;;;;;;5075935;28;20861;-41
2021/11/07 03:29:46;;;;;;;0.60;0.32;;;18.40;48.60;;;;;;5079886;28;20036;-41
2021/11/07 03:32:18;;;;;;;1.38;0.10;;;18.50;48.70;;;;;;5074752;28;20044;-41
2021/11/07 03:34:48;;;;;;;0.65;0.20;;;18.50;48.70;;;;;;5073522;28;20055;-41
2021/11/07 03:37:21;;;;;;;0.55;0.20;;;18.40;48.70;;;;;;5070797;28;20090;-41
2021/11/07 03:39:50;;;;;;;0.20;0.20;;;18.40;48.70;;;;;;5077767;28;20056;-41
2021/11/07 03:42:18;;;;;;;0.55;0.10;;;18.40;48.80;;;;;;5071499;28;20405;-41
2021/11/07 03:44:46;;;;;;;0.68;0.20;;;18.50;48.90;;;;;;5083073;28;20808;-41
2021/11/07 03:47:13;;;;;;;0.22;0.17;;;18.40;48.80;;;;;;5078053;28;20051;-41
2021/11/07 03:49:41;;;;;;;0.93;0.20;;;18.40;48.80;;;;;;5081968;28;20143;-41
2021/11/07 03:52:10;;;;;;;0.93;0.20;;;18.40;48.90;;;;;;5077127;28;20124;-46
2021/11/07 03:54:39;;;;;;;1.85;0.30;;;18.40;48.90;;;;;;5082299;28;20040;-41
2021/11/07 03:57:06;;;;;;;1.55;0.35;;;18.50;49.00;;;;;;5078775;28;20036;-41
2021/11/07 03:59:34;;;;;;;0.55;0.20;;;18.40;48.90;;;;;;5085362;28;20055;-41
2021/11/07 04:02:03;;;;;;;0.30;0.20;;;18.40;48.90;;;;;;5077891;28;20132;-40
2021/11/07 04:04:30;;;;;;;2.33;0.38;;;18.40;49.00;;;;;;5074434;28;20075;-41
2021/11/07 04:06:57;;;;;;;1.05;0.30;;;18.50;49.00;;;;;;5077428;28;20090;-40
2021/11/07 04:09:24;;;;;;;0.77;0.22;;;18.40;49.00;;;;;;5079307;28;20040;-40
2021/11/07 04:11:51;;;;;;;0.20;0.10;;;18.40;49.00;;;;;;5079035;28;20411;-41
2021/11/07 04:14:18;;;;;;;2.40;0.20;;;18.40;49.00;;;;;;5077996;28;20055;-41
2021/11/07 04:16:45;;;;;;;0.43;0.10;;;18.50;49.10;;;;;;5076808;28;20036;-44
2021/11/07 04:19:14;;;;;;;1.55;0.30;;;18.40;49.10;;;;;;5074615;28;20059;-41
2021/11/07 04:21:44;;;;;;;0.22;0.10;;;18.50;49.20;;;;;;5081860;28;20389;-40
2021/11/07 04:24:11;;;;;;;1.23;0.20;;;18.40;49.10;;;;;;5074154;28;20642;-41
2021/11/07 04:26:38;;;;;;;1.27;0.10;;;18.40;49.20;;;;;;5083214;28;20040;-40
2021/11/07 04:29:06;;;;;;;1.23;0.20;;;18.50;49.20;;;;;;5077006;28;20595;-41
2021/11/07 04:31:33;;;;;;;0.73;0.20;;;18.40;49.20;;;;;;5074985;28;20029;-40
2021/11/07 04:34:00;;;;;;;0.50;0.20;;;18.50;49.30;;;;;;5074357;28;20674;-41
2021/11/07 04:36:28;;;;;;;0.20;0.20;;;18.40;49.20;;;;;;5078440;28;20031;-41
2021/11/07 04:38:55;;;;;;;0.20;0.20;;;18.50;49.30;;;;;;5076692;28;20047;-41
2021/11/07 04:41:22;;;;;;;0.40;0.40;;;18.50;49.30;;;;;;5083376;28;20228;-41
2021/11/07 04:43:50;;;;;;;0.40;0.40;;;18.40;49.20;;;;;;5075625;28;20131;-41
2021/11/07 04:46:19;;;;;;;0.88;0.20;;;18.40;49.80;;;;;;5074055;28;20032;-41
2021/11/07 04:48:49;;;;;;;1.75;0.10;;;18.50;49.30;;;;;;5077572;28;20127;-41
2021/11/07 04:51:17;;;;;;;0.70;0.30;;;18.50;49.30;;;;;;5078251;28;20045;-41
2021/11/07 04:53:46;;;;;;;0.98;0.10;;;18.40;49.30;;;;;;5074759;28;20036;-39
2021/11/07 04:56:13;;;;;;;1.10;0.25;;;18.50;49.40;;;;;;5074491;28;20063;-41
2021/11/07 04:58:41;;;;;;;0.63;0.20;;;18.50;49.40;;;;;;5076125;28;20464;-41
2021/11/07 05:01:11;;;;;;;0.80;0.50;;;18.50;49.40;;;;;;5074598;28;20396;-42
2021/11/07 05:03:38;;;;;;;0.98;0.10;;;18.50;49.40;;;;;;5077644;28;20037;-41
2021/11/07 05:06:06;;;;;;;0.20;0.10;;;18.40;49.40;;;;;;5074479;28;20068;-41
2021/11/07 05:08:33;;;;;;;2.05;0.17;;;18.50;49.50;;;;;;5083393;28;20123;-40
2021/11/07 05:11:02;;;;;;;0.20;0.20;;;18.50;49.50;;;;;;5075497;28;20044;-42
2021/11/07 05:13:29;;;;;;;0.20;0.10;;;18.50;49.50;;;;;;5070693;28;20044;-41
2021/11/07 05:15:56;;;;;;;1.27;0.20;;;18.50;49.50;;;;;;5074147;28;20044;-42
2021/11/07 05:18:23;;;;;;;0.32;0.10;;;18.40;49.50;;;;;;5077796;28;20037;-41
2021/11/07 05:20:51;;;;;;;0.10;0.10;;;18.50;49.50;;;;;;5077706;28;20601;-41
2021/11/07 05:23:18;;;;;;;0.88;0.77;;;18.50;49.50;;;;;;5085172;28;20036;-41
2021/11/07 05:25:45;;;;;;;0.30;0.10;;;18.50;49.50;;;;;;5075570;28;20140;-41
2021/11/07 05:28:14;;;;;;;0.88;0.10;;;18.50;49.50;;;;;;5059407;28;20677;-41
2021/11/07 05:30:41;;;;;;;0.30;0.20;;;18.50;49.50;;;;;;5064234;28;20394;-41
2021/11/07 05:33:08;;;;;;;0.63;0.10;;;18.50;49.60;;;;;;5064502;28;20041;-41
2021/11/07 05:35:36;;;;;;;0.63;0.20;;;18.50;49.60;;;;;;5076656;28;20576;-41
2021/11/07 05:38:03;;;;;;;0.20;0.20;;;18.50;49.60;;;;;;5071571;28;20043;-41
2021/11/07 05:40:30;;;;;;;1.17;0.30;;;18.50;49.60;;;;;;5075959;28;20056;-41
2021/11/07 05:42:58;;;;;;;0.20;0.10;;;18.50;49.70;;;;;;5074483;28;20420;-41
2021/11/07 05:45:26;;;;;;;0.20;0.10;;;18.50;49.70;;;;;;5076034;28;20037;-40
2021/11/07 05:47:54;;;;;;;2.70;0.30;;;18.50;49.70;;;;;;5075002;28;20044;-41
2021/11/07 05:50:23;;;;;;;0.17;0.10;;;18.50;49.70;;;;;;5082139;28;20048;-40
2021/11/07 05:52:51;;;;;;;0.63;0.63;;;18.50;49.70;;;;;;5073024;28;20054;-41
2021/11/07 05:55:19;;;;;;;0.10;0.10;;;18.50;49.70;;;;;;5075350;28;20037;-41
2021/11/07 05:57:46;;;;;;;1.10;0.30;;;18.50;49.70;;;;;;5073132;28;20037;-41
2021/11/07 06:00:16;;;;;;;0.38;0.38;;;18.50;49.70;;;;;;5076942;28;20048;-40
2021/11/07 06:02:46;;;;;;;0.10;0.10;;;18.50;49.70;;;;;;5079458;28;20052;-40
2021/11/07 06:05:14;;;;;;;0.57;0.47;;;18.50;49.70;;;;;;5077047;28;20052;-40
2021/11/07 06:07:41;;;;;;;0.20;0.13;;;18.50;49.70;;;;;;5067230;28;20508;-40
2021/11/07 06:10:08;;;;;;;0.20;0.20;;;18.50;49.70;;;;;;5072367;28;20044;-39
2021/11/07 06:12:36;;;;;;;1.20;0.50;;;18.50;49.80;;;;;;5079100;28;20044;-39
2021/11/07 06:15:03;;;;;;;0.30;0.20;;;18.40;49.70;;;;;;5071203;28;20044;-39
2021/11/07 06:17:30;;;;;;;0.20;0.20;;;18.50;49.80;;;;;;5083892;28;20044;-39
2021/11/07 06:19:58;;;;;;;0.20;0.10;;;18.50;49.80;;;;;;5069038;28;20044;-42
2021/11/07 06:22:25;;;;;;;0.30;0.10;;;18.50;49.80;;;;;;5075327;28;20036;-39
2021/11/07 06:24:52;;;;;;;0.38;0.38;;;18.50;49.80;;;;;;5072899;28;20604;-41
2021/11/07 06:27:20;;;;;;;0.10;0.10;;;18.50;49.90;;;;;;5072307;28;20037;-40
2021/11/07 06:29:47;;;;;;;0.73;0.25;;;18.50;49.90;;;;;;5075896;28;20365;-42
2021/11/07 06:32:14;;;;;;;0.82;0.20;;;18.50;49.90;;;;;;5079865;28;20051;-41
2021/11/07 06:34:41;;;;;;;1.25;0.47;;;18.50;49.90;;;;;;5072933;28;20097;-41
2021/11/07 06:37:11;;;;;;;0.10;0.10;;;18.40;49.80;;;;;;5069349;28;20033;-41
2021/11/07 06:39:39;;;;;;;0.22;0.10;;;18.50;49.90;;;;;;5073023;28;20521;-41
2021/11/07 06:42:07;;;;;;;0.80;0.10;;;18.50;49.90;;;;;;5076746;28;20059;-41
2021/11/07 06:44:35;;;;;;;0.82;0.75;;;18.50;49.90;;;;;;5081744;28;20097;-42
2021/11/07 06:47:03;;;;;;;0.90;0.25;;;18.50;49.90;;;;;;5075722;28;20047;-41
2021/11/07 06:49:30;;;;;;;0.20;0.20;;;18.50;49.90;;;;;;5073241;28;20123;-41
2021/11/07 06:51:57;;;;;;;0.55;0.10;;;18.50;49.90;;;;;;5073176;28;20036;-41
2021/11/07 06:54:26;;;;;;;1.75;0.20;;;18.50;50.00;;;;;;5078087;28;20044;-41
2021/11/07 06:56:54;;;;;;;0.45;0.10;;;18.50;50.00;;;;;;5073308;28;20029;-41
2021/11/07 06:59:21;;;;;;;0.10;0.10;;;18.50;50.00;;;;;;5079022;28;20089;-41
2021/11/07 07:01:48;;;;;;;0.22;0.13;;;18.50;50.00;;;;;;5071589;28;20077;-41
2021/11/07 07:04:15;;;;;;;0.10;0.10;;;18.50;50.00;;;;;;5075791;28;20044;-41
2021/11/07 07:06:42;;;;;;;0.20;0.20;;;18.50;50.00;;;;;;5073753;28;20039;-41
2021/11/07 07:09:12;;;;;;;0.10;0.10;;;18.50;50.10;;;;;;5075396;28;20076;-46
2021/11/07 07:11:43;;;;;;;0.20;0.17;;;18.50;50.00;;;;;;5079233;28;20107;-41
2021/11/07 07:14:13;;;;;;;0.57;0.15;;;18.50;50.10;;;;;;5079022;28;20149;-41
2021/11/07 07:16:51;;;;;;;0.38;0.10;;;18.50;50.10;;;;;;5072988;28;20729;-41
2021/11/07 07:22:15;;;;;;;0.80;0.20;;;18.50;50.10;;;;;;5069508;28;20048;-41
2021/11/07 07:25:08;;;;;;;0.77;0.50;;;18.50;50.10;;;;;;5078390;28;20111;-41
2021/11/07 07:30:41;;;;;;;1.00;0.95;;;18.50;50.20;;;;;;5068292;28;20044;-41
2021/11/07 07:33:26;;;;;;;0.30;0.20;;;18.50;50.20;;;;;;5077879;28;20124;-41
2021/11/07 07:35:56;;;;;;;0.28;0.28;;;18.50;50.30;;;;;;5078514;28;20044;-41
2021/11/07 07:38:24;;;;;;;0.13;0.10;;;18.50;50.30;;;;;;5081054;28;20119;-41
2021/11/07 07:40:51;;;;;;;1.42;0.30;;;18.50;50.30;;;;;;5076015;28;20424;-41
2021/11/07 07:43:20;;;;;;;0.20;0.10;;;18.50;50.30;;;;;;5074789;28;20044;-42
2021/11/07 07:45:47;;;;;;;1.17;0.30;;;18.50;50.30;;;;;;5081907;28;20048;-41
2021/11/07 07:48:16;;;;;;;1.13;0.30;;;18.50;50.90;;;;;;5079215;28;20041;-41
2021/11/07 07:50:43;;;;;;;0.20;0.20;;;18.50;50.30;;;;;;5084176;28;20043;-40
2021/11/07 07:53:12;;;;;;;0.30;0.20;;;18.50;50.30;;;;;;5078247;28;20044;-40
2021/11/07 07:55:39;;;;;;;2.13;0.50;;;18.50;50.30;;;;;;5078939;28;20135;-40
2021/11/07 07:58:06;;;;;;;0.10;0.10;;;18.50;50.40;;;;;;5076249;28;20033;-40
2021/11/07 08:00:34;;;;;;;0.20;0.10;;;18.50;50.40;;;;;;5079337;28;20042;-40
2021/11/07 08:03:02;;;;;;;2.25;0.20;;;18.60;50.40;;;;;;5076697;28;20608;-39
2021/11/07 08:05:29;;;;;;;1.85;0.20;;;18.50;50.40;;;;;;5084756;28;20048;-39
2021/11/07 08:07:56;;;;;;;0.10;0.10;;;18.50;50.40;;;;;;5076572;28;20050;-41
2021/11/07 08:10:23;;;;;;;0.30;0.05;;;18.60;50.40;;;;;;5071498;28;20036;-41
2021/11/07 08:12:50;;;;;;;0.22;0.10;;;18.60;50.50;;;;;;5076743;28;20039;-39
2021/11/07 08:15:17;;;;;;;0.50;0.32;;;18.60;50.50;;;;;;5078880;28;20065;-41
2021/11/07 08:17:46;;;;;;;0.30;0.10;;;18.60;50.50;;;;;;5081891;28;20044;-40
2021/11/07 08:20:16;;;;;;;0.10;0.10;;;18.60;50.50;;;;;;5077904;28;20389;-40
2021/11/07 08:22:43;;;;;;;0.30;0.30;;;18.60;50.50;;;;;;5063384;28;20124;-39
2021/11/07 08:25:14;;;;;;;0.10;0.10;;;18.60;50.50;;;;;;5074501;28;20087;-39
2021/11/07 08:27:44;;;;;;;0.20;0.15;;;18.60;50.60;;;;;;5081343;28;20602;-40
2021/11/07 08:30:13;;;;;;;2.05;0.10;;;18.60;50.60;;;;;;5073199;28;20095;-40
2021/11/07 08:32:41;;;;;;;0.20;0.10;;;18.60;50.60;;;;;;5083290;28;20401;-40
2021/11/07 08:35:10;;;;;;;1.45;0.10;;;18.60;50.60;;;;;;5077190;28;20036;-39
2021/11/07 08:37:43;;;;;;;0.10;0.10;;;18.60;50.60;;;;;;5078581;28;20032;-40
2021/11/07 08:40:14;;;;;;;0.20;0.20;;;18.60;50.60;;;;;;5076088;28;20087;-40
2021/11/07 08:42:45;;;;;;;0.73;0.15;;;18.60;50.60;;;;;;5078071;28;20733;-40
2021/11/07 09:02:07;;;;;;;1.05;0.10;;;18.70;50.80;;;;;;5068482;28;20478;-40
2021/11/07 09:04:41;;;;;;;1.95;0.10;;;18.70;50.80;;;;;;5075769;28;20043;-40
2021/11/07 09:07:17;;;;;;;1.27;0.10;;;18.70;50.90;;;;;;5072900;28;20481;-40
2021/11/07 09:09:45;;;;;;;0.10;0.10;;;18.70;50.90;;;;;;5079935;28;20101;-40
2021/11/07 09:12:12;;;;;;;0.10;0.10;;;18.70;50.90;;;;;;5073515;28;20051;-40
2021/11/07 09:14:40;;;;;;;0.20;0.20;;;18.70;50.90;;;;;;5079090;28;20068;-40
2021/11/07 09:17:10;;;;;;;0.52;0.15;;;18.70;50.90;;;;;;5075959;28;20527;-40
2021/11/07 09:19:39;;;;;;;0.10;0.10;;;18.70;50.90;;;;;;5074185;28;20123;-40
2021/11/07 09:22:11;;;;;;;0.30;0.10;;;18.70;50.90;;;;;;5072965;28;20064;-40
2021/11/07 09:24:44;;;;;;;0.47;0.10;;;18.70;50.90;;;;;;5077723;28;20039;-40
2021/11/07 09:27:17;;;;;;;0.15;0.15;;;18.70;51.00;;;;;;5073934;28;20053;-40
2021/11/07 09:29:50;;;;;;;0.73;0.10;;;18.70;50.90;;;;;;5081111;28;20044;-41
2021/11/07 09:32:30;;;;;;;1.27;0.10;;;18.70;51.00;;;;;;5078485;28;20044;-41
2021/11/07 09:35:09;;;;;;;0.57;0.10;;;18.70;51.00;;;;;;5072892;28;20036;-40
2021/11/07 09:37:43;;;;;;;1.48;0.10;;;18.80;51.10;;;;;;5076133;28;20521;-41
2021/11/07 09:40:13;;;;;;;0.70;0.20;;;18.70;51.00;;;;;;5073576;28;20145;-40
2021/11/07 09:42:56;;;;;;;0.57;0.20;;;18.80;51.10;;;;;;5075406;28;20040;-41
2021/11/07 09:45:29;;;;;;;1.55;0.10;;;18.80;51.20;;;;;;5074639;28;20074;-40
2021/11/07 09:47:59;;;;;;;0.88;0.13;;;18.80;51.20;;;;;;5079320;28;20126;-40
2021/11/07 09:50:26;;;;;;;0.90;0.10;;;18.80;51.20;;;;;;5082280;28;20118;-41
2021/11/07 09:52:55;;;;;;;5.32;1.58;;;18.90;51.30;;;;;;5075099;28;20499;-40
2021/11/07 09:55:26;;;;;;;0.73;0.10;;;18.80;51.20;;;;;;5074108;28;20126;-40
2021/11/07 09:57:56;;;;;;;0.65;0.43;;;18.90;51.20;;;;;;5075742;28;20063;-40
2021/11/07 10:00:25;;;;;;;0.95;0.60;;;18.90;51.30;;;;;;5078319;28;20036;-40
2021/11/07 10:02:52;;;;;;;1.85;0.22;;;18.90;51.30;;;;;;5073242;28;20051;-40
2021/11/07 10:05:20;;;;;;;2.03;0.10;;;18.90;51.20;;;;;;5079581;28;20044;-41
2021/11/07 10:07:57;;;;;;;0.45;0.10;;;18.90;51.20;;;;;;5070818;28;20039;-40
2021/11/07 10:10:29;;;;;;;0.93;0.38;;;19.00;51.20;;;;;;5076859;28;20039;-40
2021/11/07 10:12:57;;;;;;;1.40;0.98;;;19.00;51.20;;;;;;5074114;28;20048;-40
2021/11/07 10:15:29;;;;;;;1.17;0.52;;;19.00;51.20;;;;;;5059766;28;20041;-40
2021/11/07 10:18:01;;;;;;;0.52;0.10;;;19.10;51.20;;;;;;5075298;28;20551;-40
2021/11/07 10:20:33;;;;;;;1.58;0.20;;;19.10;51.10;;;;;;5082084;28;20444;-40
2021/11/07 10:23:06;;;;;;;1.05;0.10;;;19.20;51.10;;;;;;5073207;28;20832;-41
2021/11/07 10:25:42;;;;;;;0.85;0.15;;;19.20;51.10;;;;;;5069319;28;20041;-40
2021/11/07 10:28:19;;;;;;;2.22;0.10;;;19.20;51.00;;;;;;5074458;28;20139;-40
2021/11/07 10:30:49;;;;;;;1.55;0.50;;;19.20;51.00;;;;;;5075506;28;20401;-40
2021/11/07 10:33:51;;;;;;;2.15;0.10;;;19.20;50.90;;;;;;5079154;28;20048;-40
2021/11/07 10:47:33;;;;;;;0.43;0.43;;;19.30;50.80;;;;;;5014336;28;20094;-40
2021/11/07 10:52:50;;;;;;;0.90;0.20;;;19.40;50.70;;;;;;5036718;28;20037;-41
2021/11/07 10:55:19;;;;;;;0.63;0.40;;;19.40;50.60;;;;;;5039549;28;20055;-40
2021/11/07 10:57:50;;;;;;;1.55;0.10;;;19.50;50.70;;;;;;5037951;28;20048;-40
2021/11/07 11:00:28;;;;;;;2.28;0.17;;;19.50;50.60;;;;;;5039178;28;20469;-42
2021/11/07 11:02:57;;;;;;;1.85;0.10;;;19.50;50.50;;;;;;5042167;28;20091;-39
2021/11/07 11:05:27;;;;;;;1.38;0.25;;;19.50;50.50;;;;;;5043934;28;20083;-41
2021/11/07 11:08:00;;;;;;;2.90;0.17;;;19.50;50.40;;;;;;5032466;28;20086;-39
2021/11/07 11:10:37;;;;;;;1.70;0.60;;;19.60;50.40;;;;;;5038465;28;20132;-41
2021/11/07 11:28:04;;;;;;;1.90;0.10;;;19.60;50.30;;;;;;4938768;29;20052;-39
2021/11/07 11:33:36;;;;;;;1.58;0.20;;;19.50;50.20;;;;;;4943184;29;20191;-39
2021/11/07 11:36:15;;;;;;;3.08;0.40;;;19.50;50.20;;;;;;4931474;29;20043;-40
2021/11/07 11:38:47;;;;;;;1.92;0.40;;;19.50;50.10;;;;;;4939498;29;20044;-40
2021/11/07 11:41:19;;;;;;;3.47;0.30;;;19.50;50.10;;;;;;4946031;29;20162;-40
2021/11/07 11:43:50;;;;;;;3.97;0.25;;;19.50;50.10;;;;;;4945067;29;20047;-40
2021/11/07 11:46:35;;;;;;;3.42;0.43;;;19.60;50.10;;;;;;4943117;29;20429;-40
2021/11/07 12:00:41;;;;;;;3.05;0.43;;;19.50;50.10;;;;;;5074881;28;20047;-40
2021/11/07 12:03:18;;;;;;;4.00;0.30;;;19.50;50.20;;;;;;5078486;28;20090;-40
2021/11/07 12:05:49;;;;;;;4.55;0.20;;;19.60;50.30;;;;;;5082285;28;20040;-40
2021/11/07 12:08:28;;;;;;;2.97;1.10;;;19.60;50.30;;;;;;5077645;28;20044;-40
2021/11/07 12:11:20;;;;;;;1.08;0.20;;;19.70;50.10;;;;;;5072553;28;20053;-40
2021/11/07 12:13:52;;;;;;;4.90;0.30;;;19.70;50.00;;;;;;5077839;28;20047;-40
2021/11/07 12:16:45;;;;;;;1.98;0.40;;;19.80;50.10;;;;;;5077504;28;20154;-40
2021/11/07 12:19:16;;;;;;;4.28;0.22;;;19.80;49.80;;;;;;5069951;28;20086;-40
2021/11/07 12:22:01;;;;;;;2.55;0.40;;;19.90;49.80;;;;;;5078253;28;20046;-40
2021/11/07 12:24:32;;;;;;;1.40;0.30;;;19.90;49.60;;;;;;5080919;28;20500;-40
2021/11/07 12:27:22;;;;;;;1.75;0.80;;;19.90;49.60;;;;;;5074715;28;20418;-40
2021/11/07 12:29:52;;;;;;;5.40;0.60;;;20.00;49.60;;;;;;5080113;28;20043;-40
2021/11/07 12:32:19;;;;;;;2.05;1.02;;;19.90;49.40;;;;;;5081154;28;20508;-40
2021/11/07 12:35:02;;;;;;;6.30;0.88;;;20.00;49.40;;;;;;5078764;28;20056;-40
2021/11/07 12:40:42;;;;;;;4.50;1.13;;;20.00;49.10;;;;;;5074571;28;20109;-40
2021/11/07 12:43:12;;;;;;;1.75;0.95;;;20.00;49.10;;;;;;5077856;28;20040;-40
2021/11/07 12:45:43;;;;;;;3.22;0.85;;;20.00;49.10;;;;;;5078782;28;20464;-40
2021/11/07 12:48:13;;;;;;;2.30;0.70;;;20.10;49.30;;;;;;5078136;28;20544;-40
2021/11/07 12:50:55;;;;;;;4.50;0.38;;;20.10;49.30;;;;;;5079344;28;20743;-40
2021/11/07 12:53:24;;;;;;;2.10;0.20;;;20.10;49.20;;;;;;5083427;28;20046;-40
2021/11/07 12:55:51;;;;;;;3.00;0.40;;;20.20;49.30;;;;;;5074892;28;20040;-40
2021/11/07 12:58:19;;;;;;;3.67;0.60;;;20.20;49.10;;;;;;5077540;28;20037;-40
2021/11/07 13:00:47;;;;;;;7.60;0.77;;;20.20;48.90;;;;;;5075712;28;20039;-40
2021/11/07 13:03:16;;;;;;;5.68;0.85;;;20.30;48.80;;;;;;5078743;28;20651;-40
2021/11/07 13:05:44;;;;;;;5.03;0.68;;;20.30;48.80;;;;;;5080835;28;20047;-40
2021/11/07 13:08:18;;;;;;;3.65;0.65;;;20.30;48.80;;;;;;5077686;28;20117;-40
2021/11/07 13:10:52;;;;;;;3.22;0.60;;;20.40;48.70;;;;;;5069900;28;20036;-41
2021/11/07 13:13:27;;;;;;;1.85;0.50;;;20.40;48.60;;;;;;5074096;28;20051;-41
2021/11/07 13:16:07;;;;;;;2.15;0.47;;;20.40;48.50;;;;;;5079874;28;20040;-41
2021/11/07 13:18:50;;;;;;;3.10;0.77;;;20.50;48.50;;;;;;5078277;28;20039;-40
2021/11/07 13:21:47;;;;;;;4.07;1.00;;;20.50;48.40;;;;;;5077304;28;20045;-41
2021/11/07 13:24:28;;;;;;;2.25;0.30;;;20.50;48.30;;;;;;5074155;28;20129;-40
2021/11/07 13:27:05;;;;;;;4.80;0.43;;;20.60;48.20;;;;;;5074275;28;20048;-41
2021/11/07 13:29:37;;;;;;;4.55;1.15;;;20.60;48.10;;;;;;5084941;28;20127;-41
2021/11/07 13:34:55;;;;;;;3.80;0.20;;;20.70;48.10;;;;;;5072261;28;20047;-41
2021/11/07 13:37:25;;;;;;;5.93;0.40;;;20.70;47.90;;;;;;5072833;28;20040;-41
2021/11/07 13:39:53;;;;;;;0.57;0.40;;;20.70;47.70;;;;;;5074238;28;20076;-41
2021/11/07 13:42:21;;;;;;;3.50;0.55;;;20.80;47.60;;;;;;5075004;28;20040;-41
2021/11/07 13:44:53;;;;;;;3.97;0.40;;;20.80;47.60;;;;;;5081015;28;20589;-41
2021/11/07 13:47:29;;;;;;;3.63;0.50;;;20.80;47.50;;;;;;5081043;28;20044;-41
2021/11/07 13:49:56;;;;;;;7.13;0.47;;;20.80;47.30;;;;;;5075115;28;20496;-43
2021/11/07 13:52:23;;;;;;;2.90;0.30;;;20.80;47.20;;;;;;5073886;28;20062;-41
2021/11/07 13:54:50;;;;;;;4.00;0.22;;;20.90;47.20;;;;;;5073846;28;20058;-41
2021/11/07 13:57:18;;;;;;;5.38;0.40;;;20.90;47.10;;;;;;5075783;28;20037;-41
2021/11/07 13:59:46;;;;;;;3.15;0.65;;;20.90;47.10;;;;;;5077254;28;20147;-41
2021/11/07 14:02:16;;;;;;;4.30;0.32;;;20.90;47.10;;;;;;5077997;28;20459;-40
2021/11/07 14:04:46;;;;;;;2.17;0.40;;;20.90;47.00;;;;;;5072867;28;20476;-40
2021/11/07 14:07:18;;;;;;;2.85;0.73;;;20.90;46.90;;;;;;5070621;28;20040;-40
2021/11/07 14:10:05;;;;;;;1.70;0.40;;;21.00;46.90;;;;;;5075883;28;20043;-40
2021/11/07 14:12:37;;;;;;;3.65;0.63;;;21.00;46.80;;;;;;5063984;28;20064;-41
2021/11/07 14:15:21;;;;;;;7.65;0.82;;;21.00;46.50;;;;;;5068029;28;20040;-40
2021/11/07 14:17:50;;;;;;;3.67;0.25;;;21.00;45.60;;;;;;5078541;28;20722;-41
2021/11/07 14:20:34;;;;;;;1.40;0.65;;;20.90;45.20;;;;;;5078749;28;20040;-41
2021/11/07 14:23:07;;;;;;;2.60;0.40;;;21.00;44.90;;;;;;5071505;28;20060;-41